createdAt,value
2023-05-23T00:00:07.098Z,101619.34
2023-05-23T00:02:41.557Z,101621.97
2023-05-23T00:05:10.453Z,101621.97
2023-05-23T00:07:38.719Z,101624.56
2023-05-23T00:10:07.801Z,101617.56
2023-05-23T00:12:39.562Z,101623.72
2023-05-23T00:15:10.035Z,101613.16
2023-05-23T00:17:39.721Z,101613.19
2023-05-23T00:20:11.119Z,101611.41
2023-05-23T00:22:43.064Z,101609.66
2023-05-23T00:25:12.268Z,101614.03
2023-05-23T00:27:41.995Z,101613.19
2023-05-23T00:30:10.777Z,101601.78
2023-05-23T00:32:39.249Z,101609.69
2023-05-23T00:35:08.896Z,101615.78
2023-05-23T00:37:37.228Z,101614.84
2023-05-23T00:40:06.539Z,101610.44
2023-05-23T00:42:34.875Z,101617.38
2023-05-23T00:45:05.012Z,101593.72
2023-05-23T00:47:33.844Z,101618.25
2023-05-23T00:50:02.292Z,101616.41
2023-05-23T00:52:32.686Z,101619.94
2023-05-23T00:55:01.148Z,101609.41
2023-05-23T00:57:31.125Z,101625.19
2023-05-23T00:59:59.421Z,101630.41
2023-05-23T01:02:32.364Z,101630.41
2023-05-23T01:05:02.500Z,101633.88
2023-05-23T01:07:32.640Z,101632.06
2023-05-23T01:10:01.161Z,101626.78
2023-05-23T01:12:41.634Z,101622.41
2023-05-23T01:15:13.571Z,101621.47
2023-05-23T01:17:49.798Z,101619.78
2023-05-23T01:20:22.962Z,101628.53
2023-05-23T01:23:06.951Z,101616.28
2023-05-23T01:25:59.529Z,101619.84
2023-05-23T01:28:33.332Z,101621.56
2023-05-23T01:31:05.219Z,101615.47
2023-05-23T01:33:34.652Z,101618.94
2023-05-23T01:36:04.635Z,101616.28
2023-05-23T01:38:33.033Z,101614.47
2023-05-23T01:41:01.994Z,101618.03
2023-05-23T01:43:31.881Z,101615.41
2023-05-23T01:46:01.617Z,101623.28
2023-05-23T01:48:32.287Z,101626.75
2023-05-23T01:51:00.870Z,101625.03
2023-05-23T01:53:31.680Z,101622.31
2023-05-23T01:56:03.422Z,101616.25
2023-05-23T01:58:33.880Z,101610.13
2023-05-23T02:01:03.240Z,101618.94
2023-05-23T02:03:32.143Z,101619.84
2023-05-23T02:06:00.389Z,101609.34
2023-05-23T02:08:29.103Z,101617.22
2023-05-23T02:10:57.616Z,101599.66
2023-05-23T02:13:26.441Z,101612.00
2023-05-23T02:15:56.252Z,101608.50
2023-05-23T02:18:26.384Z,101612.91
2023-05-23T02:21:14.620Z,101611.22
2023-05-23T02:23:43.030Z,101606.00
2023-05-23T02:26:11.394Z,101604.28
2023-05-23T02:28:39.874Z,101606.94
2023-05-23T02:31:10.261Z,101604.38
2023-05-23T02:33:38.767Z,101607.03
2023-05-23T02:36:07.399Z,101597.38
2023-05-23T02:38:35.843Z,101603.56
2023-05-23T02:41:04.191Z,101608.00
2023-05-23T02:43:32.812Z,101604.53
2023-05-23T02:46:01.197Z,101595.78
2023-05-23T02:48:31.228Z,101595.75
2023-05-23T02:50:59.704Z,101607.16
2023-05-23T02:53:28.007Z,101597.50
2023-05-23T02:55:56.771Z,101569.41
2023-05-23T02:58:25.499Z,101569.34
2023-05-23T03:00:53.882Z,101592.00
2023-05-23T03:03:22.344Z,101585.75
2023-05-23T03:05:52.288Z,101590.88
2023-05-23T03:08:20.569Z,101584.59
2023-05-23T03:10:48.852Z,101586.25
2023-05-23T03:13:17.437Z,101588.81
2023-05-23T03:15:47.366Z,101573.81
2023-05-23T03:18:16.391Z,101587.75
2023-05-23T03:20:44.678Z,101592.09
2023-05-23T03:23:14.403Z,101590.28
2023-05-23T03:25:44.018Z,101586.72
2023-05-23T03:28:13.105Z,101587.47
2023-05-23T03:30:41.515Z,101578.56
2023-05-23T03:33:10.003Z,101583.66
2023-05-23T03:35:38.398Z,101580.06
2023-05-23T03:38:07.509Z,101586.09
2023-05-23T03:40:37.262Z,101585.88
2023-05-23T03:43:06.522Z,101581.22
2023-05-23T03:45:38.102Z,101581.00
2023-05-23T03:48:13.092Z,101564.91
2023-05-23T03:50:43.027Z,101578.44
2023-05-23T03:53:12.788Z,101578.75
2023-05-23T03:55:42.834Z,101582.75
2023-05-23T03:58:12.055Z,101576.19
2023-05-23T04:00:42.216Z,101577.66
2023-05-23T04:03:14.705Z,101578.47
2023-05-23T04:05:43.405Z,101585.44
2023-05-23T04:08:12.096Z,101582.63
2023-05-23T04:10:40.586Z,101582.31
2023-05-23T04:13:11.100Z,101575.56
2023-05-23T04:15:40.012Z,101587.56
2023-05-23T04:18:11.469Z,101573.94
2023-05-23T04:20:39.927Z,101564.25
2023-05-23T04:23:08.592Z,101582.56
2023-05-23T04:25:41.057Z,101575.31
2023-05-23T04:28:17.647Z,101571.03
2023-05-23T04:30:46.686Z,101567.59
2023-05-23T04:33:17.554Z,101572.09
2023-05-23T04:35:46.989Z,101532.94
2023-05-23T04:38:15.590Z,101579.66
2023-05-23T04:40:44.605Z,101573.66
2023-05-23T04:43:29.445Z,101576.53
2023-05-23T04:46:03.762Z,101584.25
2023-05-23T04:48:39.025Z,101578.34
2023-05-23T04:51:07.923Z,101575.31
2023-05-23T04:53:41.297Z,101573.56
2023-05-23T04:56:11.673Z,101583.16
2023-05-23T04:58:43.025Z,101576.59
2023-05-23T05:01:14.370Z,101579.28
2023-05-23T05:03:43.308Z,101579.47
2023-05-23T05:06:11.721Z,101576.91
2023-05-23T05:08:40.809Z,101571.25
2023-05-23T05:11:10.976Z,101569.72
2023-05-23T05:13:39.366Z,101565.22
2023-05-23T05:16:09.434Z,101570.38
2023-05-23T05:18:38.355Z,101574.84
2023-05-23T05:21:08.274Z,101579.28
2023-05-23T05:23:40.224Z,101577.53
2023-05-23T05:26:10.205Z,101578.38
2023-05-23T05:28:39.355Z,101583.97
2023-05-23T05:31:10.227Z,101578.72
2023-05-23T05:33:38.887Z,101575.44
2023-05-23T05:36:13.412Z,101575.34
2023-05-23T05:38:42.841Z,101569.41
2023-05-23T05:41:11.692Z,101568.72
2023-05-23T05:43:49.595Z,101567.91
2023-05-23T05:46:19.533Z,101563.44
2023-05-23T05:48:48.431Z,101561.75
2023-05-23T05:51:18.764Z,101561.06
2023-05-23T05:53:47.613Z,101563.94
2023-05-23T05:56:16.732Z,101564.84
2023-05-23T05:58:45.204Z,101561.19
2023-05-23T06:01:15.843Z,101555.69
2023-05-23T06:03:45.940Z,101558.97
2023-05-23T06:06:14.819Z,101561.44
2023-05-23T06:08:44.350Z,101556.06
2023-05-23T06:11:17.196Z,101557.63
2023-05-23T06:13:45.691Z,101560.13
2023-05-23T06:16:15.323Z,101551.91
2023-05-23T06:18:46.714Z,101545.34
2023-05-23T06:21:15.186Z,101549.06
2023-05-23T06:23:43.841Z,101558.00
2023-05-23T06:26:12.354Z,101543.31
2023-05-23T06:28:40.857Z,101553.84
2023-05-23T06:31:11.001Z,101548.28
2023-05-23T06:33:40.323Z,101540.53
2023-05-23T06:36:10.140Z,101541.31
2023-05-23T06:38:38.582Z,101540.81
2023-05-23T06:41:08.306Z,101537.09
2023-05-23T06:43:38.368Z,101545.94
2023-05-23T06:46:23.487Z,101537.81
2023-05-23T06:49:02.642Z,101538.22
2023-05-23T06:51:38.220Z,101537.84
2023-05-23T06:54:07.711Z,101538.22
2023-05-23T06:56:36.749Z,101544.84
2023-05-23T06:59:06.275Z,101538.13
2023-05-23T07:01:35.078Z,101534.75
2023-05-23T07:04:03.773Z,101538.50
2023-05-23T07:06:32.933Z,101520.19
2023-05-23T07:09:05.121Z,101532.53
2023-05-23T07:11:33.675Z,101539.59
2023-05-23T07:14:03.469Z,101531.78
2023-05-23T07:16:41.544Z,101539.88
2023-05-23T07:19:10.394Z,101527.94
2023-05-23T07:21:48.756Z,101534.41
2023-05-23T07:24:21.246Z,101527.53
2023-05-23T07:26:50.320Z,101535.50
2023-05-23T07:29:19.379Z,101533.44
2023-05-23T07:31:49.465Z,101526.50
2023-05-23T07:34:18.613Z,101535.06
2023-05-23T07:36:56.579Z,101533.00
2023-05-23T07:39:28.886Z,101529.13
2023-05-23T07:41:59.537Z,101532.13
2023-05-23T07:44:28.186Z,101534.22
2023-05-23T07:46:57.124Z,101511.97
2023-05-23T07:49:26.822Z,101523.78
2023-05-23T07:51:56.181Z,101521.88
2023-05-23T07:54:24.711Z,101526.69
2023-05-23T07:56:58.586Z,101525.97
2023-05-23T07:59:27.709Z,101524.72
2023-05-23T08:01:56.580Z,101515.97
2023-05-23T08:04:27.480Z,101520.47
2023-05-23T08:09:33.374Z,101515.63
2023-05-23T08:12:03.518Z,101514.78
2023-05-23T08:14:49.150Z,101515.13
2023-05-23T08:17:34.358Z,101508.72
2023-05-23T08:20:05.244Z,101516.41
2023-05-23T08:22:34.820Z,101509.38
2023-05-23T08:25:04.027Z,101513.34
2023-05-23T08:27:36.871Z,101483.81
2023-05-23T08:30:14.505Z,101515.16
2023-05-23T08:32:42.908Z,101503.81
2023-05-23T08:35:11.300Z,101511.97
2023-05-23T08:37:43.219Z,101498.47
2023-05-23T08:40:16.205Z,101507.19
2023-05-23T08:42:51.134Z,101497.66
2023-05-23T08:45:20.012Z,101501.94
2023-05-23T08:47:49.085Z,101501.16
2023-05-23T08:50:22.897Z,101487.94
2023-05-23T08:52:57.182Z,101489.72
2023-05-23T08:55:29.587Z,101499.00
2023-05-23T08:58:01.926Z,101497.84
2023-05-23T09:00:44.584Z,101489.16
2023-05-23T09:03:14.388Z,101493.88
2023-05-23T09:06:03.727Z,101487.34
2023-05-23T09:08:33.122Z,101476.34
2023-05-23T09:11:03.220Z,101495.34
2023-05-23T09:13:36.463Z,101494.88
2023-05-23T09:16:09.531Z,101489.56
2023-05-23T09:18:44.564Z,101484.94
2023-05-23T09:21:16.119Z,101493.81
2023-05-23T09:24:08.650Z,101484.13
2023-05-23T09:26:38.855Z,101488.06
2023-05-23T09:29:08.897Z,101495.22
2023-05-23T09:31:37.739Z,101490.09
2023-05-23T09:34:07.021Z,101498.19
2023-05-23T09:36:36.587Z,101488.13
2023-05-23T09:39:06.657Z,101483.41
2023-05-23T09:41:36.062Z,101483.19
2023-05-23T09:44:09.730Z,101478.09
2023-05-23T09:46:39.567Z,101479.69
2023-05-23T09:49:18.140Z,101475.56
2023-05-23T09:52:01.667Z,101474.91
2023-05-23T09:54:30.116Z,101477.75
2023-05-23T09:57:01.640Z,101480.22
2023-05-23T09:59:36.187Z,101445.78
2023-05-23T10:02:07.915Z,101489.97
2023-05-23T10:04:38.437Z,101464.84
2023-05-23T10:07:14.532Z,101475.03
2023-05-23T10:09:47.048Z,101478.88
2023-05-23T10:12:48.906Z,101479.03
2023-05-23T10:15:21.451Z,101473.72
2023-05-23T10:18:03.877Z,101462.91
2023-05-23T10:20:33.536Z,101457.16
2023-05-23T10:23:02.554Z,101476.56
2023-05-23T10:25:31.041Z,101466.22
2023-05-23T10:28:03.271Z,101469.59
2023-05-23T10:30:35.530Z,101474.00
2023-05-23T10:33:06.171Z,101462.84
2023-05-23T10:35:46.925Z,101469.97
2023-05-23T10:38:29.485Z,101464.75
2023-05-23T10:41:07.546Z,101468.28
2023-05-23T10:43:45.954Z,101462.91
2023-05-23T10:46:16.298Z,101468.28
2023-05-23T10:48:45.841Z,101461.16
2023-05-23T10:51:15.547Z,101459.03
2023-05-23T10:53:45.309Z,101459.41
2023-05-23T10:56:22.517Z,101446.38
2023-05-23T10:58:54.996Z,101456.94
2023-05-23T11:01:25.720Z,101460.28
2023-05-23T11:03:56.102Z,101459.22
2023-05-23T11:06:33.676Z,101452.97
2023-05-23T11:09:07.509Z,101437.59
2023-05-23T11:11:55.635Z,101460.50
2023-05-23T11:14:33.828Z,101450.25
2023-05-23T11:17:17.813Z,101455.66
2023-05-23T11:20:00.998Z,101447.16
2023-05-23T11:22:30.420Z,101454.81
2023-05-23T11:24:59.505Z,101442.94
2023-05-23T11:27:29.598Z,101441.06
2023-05-23T11:30:03.084Z,101432.25
2023-05-23T11:32:37.242Z,101423.44
2023-05-23T11:35:07.226Z,101430.25
2023-05-23T11:37:36.219Z,101424.66
2023-05-23T11:40:32.637Z,101417.56
2023-05-23T11:43:02.331Z,101431.97
2023-05-23T11:45:31.923Z,101428.41
2023-05-23T11:48:07.244Z,101410.03
2023-05-23T11:50:44.340Z,101404.31
2023-05-23T11:53:13.122Z,101405.88
2023-05-23T11:55:42.369Z,101413.06
2023-05-23T11:58:12.427Z,101408.56
2023-05-23T12:00:45.372Z,101404.03
2023-05-23T12:03:15.445Z,101407.38
2023-05-23T12:05:45.217Z,101409.09
2023-05-23T12:08:14.651Z,101394.88
2023-05-23T12:10:51.985Z,101397.50
2023-05-23T12:13:20.556Z,101391.19
2023-05-23T12:15:52.784Z,101402.38
2023-05-23T12:18:23.053Z,101404.06
2023-05-23T12:20:51.771Z,101396.22
2023-05-23T12:23:21.224Z,101387.56
2023-05-23T12:25:52.862Z,101395.22
2023-05-23T12:28:21.699Z,101393.91
2023-05-23T12:30:50.402Z,101380.28
2023-05-23T12:33:20.735Z,101375.56
2023-05-23T12:35:50.736Z,101378.81
2023-05-23T12:38:19.916Z,101378.16
2023-05-23T12:40:48.267Z,101381.41
2023-05-23T12:43:16.958Z,101378.22
2023-05-23T12:45:45.234Z,101376.03
2023-05-23T12:48:13.991Z,101378.63
2023-05-23T12:50:42.371Z,101360.78
2023-05-23T12:53:12.221Z,101372.25
2023-05-23T12:55:40.847Z,101380.25
2023-05-23T12:58:09.399Z,101380.56
2023-05-23T13:00:37.870Z,101378.84
2023-05-23T13:03:06.945Z,101372.81
2023-05-23T13:05:35.369Z,101372.56
2023-05-23T13:08:03.757Z,101372.47
2023-05-23T13:10:34.095Z,101370.03
2023-05-23T13:13:02.446Z,101373.03
2023-05-23T13:15:30.968Z,101375.06
2023-05-23T13:17:59.560Z,101357.84
2023-05-23T13:20:30.249Z,101378.56
2023-05-23T13:22:58.835Z,101378.00
2023-05-23T13:25:28.204Z,101388.25
2023-05-23T13:27:58.080Z,101378.59
2023-05-23T13:30:26.718Z,101382.56
2023-05-23T13:32:55.318Z,101380.84
2023-05-23T13:35:23.881Z,101374.13
2023-05-23T13:37:52.368Z,101378.25
2023-05-23T13:40:22.470Z,101373.06
2023-05-23T13:42:52.024Z,101373.94
2023-05-23T13:45:23.101Z,101374.97
2023-05-23T13:47:51.709Z,101374.13
2023-05-23T13:50:20.759Z,101376.06
2023-05-23T13:52:49.633Z,101377.09
2023-05-23T13:55:19.035Z,101369.28
2023-05-23T13:57:48.822Z,101379.97
2023-05-23T14:00:17.639Z,101377.47
2023-05-23T14:02:47.519Z,101380.06
2023-05-23T14:05:16.001Z,101383.91
2023-05-23T14:07:47.295Z,101371.81
2023-05-23T14:10:17.397Z,101383.56
2023-05-23T14:12:46.060Z,101373.97
2023-05-23T14:15:14.608Z,101372.22
2023-05-23T14:17:43.051Z,101382.59
2023-05-23T14:20:13.660Z,101376.06
2023-05-23T14:22:42.131Z,101371.22
2023-05-23T14:25:11.739Z,101376.34
2023-05-23T14:27:40.307Z,101358.00
2023-05-23T14:30:09.945Z,101368.75
2023-05-23T14:32:39.685Z,101366.31
2023-05-23T14:35:10.738Z,101372.75
2023-05-23T14:37:40.552Z,101373.38
2023-05-23T14:40:11.076Z,101361.47
2023-05-23T14:42:39.688Z,101372.81
2023-05-23T14:45:08.586Z,101372.16
2023-05-23T14:47:37.517Z,101376.75
2023-05-23T14:50:06.501Z,101378.09
2023-05-23T14:52:35.417Z,101376.81
2023-05-23T14:55:05.574Z,101363.13
2023-05-23T14:57:34.233Z,101379.09
2023-05-23T15:00:05.023Z,101383.09
2023-05-23T15:02:36.412Z,101390.50
2023-05-23T15:05:04.913Z,101379.34
2023-05-23T15:07:33.758Z,101390.19
2023-05-23T15:10:03.014Z,101386.34
2023-05-23T15:12:35.092Z,101384.78
2023-05-23T15:15:04.476Z,101387.66
2023-05-23T15:17:37.730Z,101392.44
2023-05-23T15:20:07.768Z,101382.03
2023-05-23T15:22:39.848Z,101397.41
2023-05-23T15:25:10.635Z,101395.06
2023-05-23T15:27:40.331Z,101399.59
2023-05-23T15:30:09.964Z,101394.38
2023-05-23T15:32:38.499Z,101399.00
2023-05-23T15:35:07.855Z,101394.75
2023-05-23T15:37:36.177Z,101397.94
2023-05-23T15:40:05.061Z,101383.47
2023-05-23T15:42:33.981Z,101393.88
2023-05-23T15:45:03.821Z,101393.53
2023-05-23T15:47:36.983Z,101395.97
2023-05-23T15:50:06.104Z,101396.13
2023-05-23T15:52:34.444Z,101395.63
2023-05-23T15:55:05.656Z,101393.97
2023-05-23T15:57:34.152Z,101392.41
2023-05-23T16:00:04.049Z,101390.59
2023-05-23T16:02:40.846Z,101394.75
2023-05-23T16:05:09.524Z,101387.91
2023-05-23T16:07:38.021Z,101388.34
2023-05-23T16:10:07.513Z,101391.09
2023-05-23T16:12:36.142Z,101385.03
2023-05-23T16:15:06.563Z,101392.16
2023-05-23T16:17:34.913Z,101388.00
2023-05-23T16:20:04.425Z,101390.41
2023-05-23T16:22:33.215Z,101394.56
2023-05-23T16:25:01.700Z,101377.69
2023-05-23T16:27:30.826Z,101396.03
2023-05-23T16:29:59.128Z,101383.75
2023-05-23T16:32:29.475Z,101393.06
2023-05-23T16:34:57.814Z,101402.38
2023-05-23T16:37:26.140Z,101394.09
2023-05-23T16:39:54.377Z,101398.19
2023-05-23T16:42:22.655Z,101401.38
2023-05-23T16:44:50.962Z,101401.88
2023-05-23T16:47:19.395Z,101406.66
2023-05-23T16:49:49.066Z,101393.78
2023-05-23T16:52:18.614Z,101403.09
2023-05-23T16:54:47.129Z,101396.59
2023-05-23T16:57:15.732Z,101400.53
2023-05-23T16:59:44.146Z,101408.06
2023-05-23T17:02:16.213Z,101407.41
2023-05-23T17:04:44.845Z,101405.13
2023-05-23T17:07:15.967Z,101405.41
2023-05-23T17:09:44.914Z,101403.09
2023-05-23T17:12:13.938Z,101399.03
2023-05-23T17:14:42.754Z,101402.88
2023-05-23T17:17:11.633Z,101392.59
2023-05-23T17:19:41.070Z,101392.94
2023-05-23T17:22:09.803Z,101402.16
2023-05-23T17:24:39.493Z,101386.03
2023-05-23T17:27:08.250Z,101406.59
2023-05-23T17:29:36.735Z,101404.44
2023-05-23T17:32:05.350Z,101400.31
2023-05-23T17:34:33.673Z,101398.84
2023-05-23T17:37:01.998Z,101400.97
2023-05-23T17:39:30.356Z,101399.66
2023-05-23T17:42:01.065Z,101404.31
2023-05-23T17:44:29.416Z,101402.00
2023-05-23T17:46:57.812Z,101395.44
2023-05-23T17:49:26.380Z,101410.78
2023-05-23T17:51:54.874Z,101412.09
2023-05-23T17:54:23.314Z,101417.91
2023-05-23T17:56:51.704Z,101405.28
2023-05-23T17:59:22.072Z,101419.72
2023-05-23T18:01:50.527Z,101424.53
2023-05-23T18:04:19.890Z,101415.09
2023-05-23T18:06:48.582Z,101409.34
2023-05-23T18:09:17.405Z,101409.81
2023-05-23T18:11:45.842Z,101416.28
2023-05-23T18:14:14.195Z,101412.22
2023-05-23T18:16:44.043Z,101404.56
2023-05-23T18:19:12.540Z,101417.97
2023-05-23T18:21:40.949Z,101412.84
2023-05-23T18:24:11.697Z,101408.06
2023-05-23T18:26:42.434Z,101424.03
2023-05-23T18:29:10.812Z,101420.88
2023-05-23T18:31:39.148Z,101433.69
2023-05-23T18:34:09.089Z,101425.19
2023-05-23T18:36:37.981Z,101431.63
2023-05-23T18:39:06.348Z,101431.88
2023-05-23T18:41:34.658Z,101428.59
2023-05-23T18:44:05.100Z,101429.75
2023-05-23T18:46:33.484Z,101416.28
2023-05-23T18:49:01.892Z,101442.13
2023-05-23T18:51:32.377Z,101433.19
2023-05-23T18:54:00.733Z,101435.44
2023-05-23T18:56:29.082Z,101440.84
2023-05-23T18:58:57.400Z,101433.16
2023-05-23T19:01:26.138Z,101442.13
2023-05-23T19:03:54.845Z,101434.38
2023-05-23T19:06:23.236Z,101435.44
2023-05-23T19:08:53.092Z,101438.28
2023-05-23T19:11:21.861Z,101434.13
2023-05-23T19:13:50.548Z,101441.31
2023-05-23T19:16:20.631Z,101447.78
2023-05-23T19:18:49.109Z,101453.44
2023-05-23T19:21:17.501Z,101447.44
2023-05-23T19:23:46.046Z,101453.78
2023-05-23T19:26:17.324Z,101443.25
2023-05-23T19:28:46.947Z,101445.91
2023-05-23T19:31:15.282Z,101443.31
2023-05-23T19:33:43.759Z,101457.78
2023-05-23T19:36:12.267Z,101451.03
2023-05-23T19:38:40.840Z,101450.22
2023-05-23T19:41:15.517Z,101438.97
2023-05-23T19:43:51.961Z,101458.50
2023-05-23T19:46:20.612Z,101456.88
2023-05-23T19:48:49.006Z,101454.34
2023-05-23T19:51:17.544Z,101448.28
2023-05-23T19:53:45.807Z,101450.97
2023-05-23T19:56:14.188Z,101446.63
2023-05-23T19:58:43.051Z,101454.72
2023-05-23T20:01:12.910Z,101456.66
2023-05-23T20:03:41.618Z,101470.75
2023-05-23T20:06:10.991Z,101469.91
2023-05-23T20:08:39.490Z,101475.28
2023-05-23T20:11:07.901Z,101468.28
2023-05-23T20:13:37.744Z,101473.63
2023-05-23T20:16:07.943Z,101470.13
2023-05-23T20:18:37.704Z,101477.22
2023-05-23T20:21:06.337Z,101471.09
2023-05-23T20:23:34.846Z,101480.00
2023-05-23T20:26:03.497Z,101485.38
2023-05-23T20:28:32.825Z,101479.38
2023-05-23T20:31:01.550Z,101489.25
2023-05-23T20:33:30.082Z,101484.16
2023-05-23T20:36:00.014Z,101480.97
2023-05-23T20:38:29.086Z,101497.88
2023-05-23T20:40:57.481Z,101499.03
2023-05-23T20:43:28.321Z,101495.53
2023-05-23T20:45:57.517Z,101495.56
2023-05-23T20:48:26.534Z,101498.34
2023-05-23T20:50:55.797Z,101501.97
2023-05-23T20:53:25.534Z,101491.53
2023-05-23T20:55:54.009Z,101507.34
2023-05-23T20:58:22.648Z,101497.75
2023-05-23T21:00:51.790Z,101503.91
2023-05-23T21:03:20.603Z,101510.97
2023-05-23T21:05:49.125Z,101503.09
2023-05-23T21:08:19.064Z,101496.97
2023-05-23T21:10:52.272Z,101489.22
2023-05-23T21:13:22.645Z,101504.19
2023-05-23T21:15:51.410Z,101513.94
2023-05-23T21:18:19.718Z,101505.22
2023-05-23T21:20:48.110Z,101495.66
2023-05-23T21:23:16.644Z,101512.38
2023-05-23T21:25:44.967Z,101507.97
2023-05-23T21:28:14.822Z,101492.28
2023-05-23T21:30:43.946Z,101512.47
2023-05-23T21:33:12.766Z,101518.66
2023-05-23T21:35:45.007Z,101510.72
2023-05-23T21:38:13.353Z,101511.63
2023-05-23T21:40:42.046Z,101499.38
2023-05-23T21:43:10.675Z,101508.22
2023-05-23T21:45:40.592Z,101506.47
2023-05-23T21:48:09.014Z,101508.34
2023-05-23T21:50:37.756Z,101504.94
2023-05-23T21:53:06.148Z,101509.38
2023-05-23T21:55:34.412Z,101503.31
2023-05-23T21:58:02.815Z,101505.03
2023-05-23T22:00:31.310Z,101501.53
2023-05-23T22:03:01.254Z,101503.34
2023-05-23T22:05:32.641Z,101487.63
2023-05-23T22:08:01.071Z,101495.50
2023-05-23T22:10:29.420Z,101499.13
2023-05-23T22:12:57.786Z,101484.34
2023-05-23T22:15:26.425Z,101504.59
2023-05-23T22:17:56.201Z,101507.31
2023-05-23T22:20:26.117Z,101499.47
2023-05-23T22:22:54.469Z,101496.03
2023-05-23T22:25:23.059Z,101488.19
2023-05-23T22:27:51.374Z,101512.72
2023-05-23T22:30:19.761Z,101489.97
2023-05-23T22:32:48.112Z,101501.38
2023-05-23T22:35:17.723Z,101511.03
2023-05-23T22:37:48.037Z,101505.78
2023-05-23T22:40:16.661Z,101511.03
2023-05-23T22:42:44.950Z,101519.84
2023-05-23T22:45:13.804Z,101510.19
2023-05-23T22:47:42.326Z,101505.81
2023-05-23T22:50:15.186Z,101495.34
2023-05-23T22:52:44.065Z,101520.75
2023-05-23T22:55:13.910Z,101515.47
2023-05-23T22:57:42.182Z,101516.38
2023-05-23T23:00:13.530Z,101515.47
2023-05-23T23:02:44.184Z,101514.59
2023-05-23T23:05:13.016Z,101502.38
2023-05-23T23:07:41.405Z,101511.09
2023-05-23T23:10:10.939Z,101505.84
2023-05-23T23:12:40.782Z,101504.09
2023-05-23T23:15:10.397Z,101504.97
2023-05-23T23:17:38.993Z,101499.72
2023-05-23T23:20:09.298Z,101488.34
2023-05-23T23:22:37.946Z,101503.25
2023-05-23T23:25:10.340Z,101494.53
2023-05-23T23:27:41.465Z,101499.06
2023-05-23T23:30:10.793Z,101497.38
2023-05-23T23:32:39.438Z,101502.59
2023-05-23T23:35:08.248Z,101506.16
2023-05-23T23:37:36.852Z,101510.50
2023-05-23T23:40:06.327Z,101514.03
2023-05-23T23:42:34.789Z,101513.19
2023-05-23T23:45:05.126Z,101500.03
2023-05-23T23:47:35.933Z,101504.44
2023-05-23T23:50:04.391Z,101507.91
2023-05-23T23:52:33.725Z,101488.63
2023-05-23T23:55:02.382Z,101512.31
2023-05-23T23:57:34.621Z,101518.44
